sensor_id;sensor_type;location;lat;lon;timestamp;pressure;altitude;pressure_sealevel;temperature;humidity
64292;BME280;50628;51.008;13.658;2022-12-17T00:00:53;100109.25;;;-3.44;100.00
64292;BME280;50628;51.008;13.658;2022-12-17T00:06:12;100107.00;;;-3.61;100.00
64292;BME280;50628;51.008;13.658;2022-12-17T00:11:33;100099.09;;;-3.45;100.00
64292;BME280;50628;51.008;13.658;2022-12-17T00:16:52;100110.28;;;-3.54;100.00
64292;BME280;50628;51.008;13.658;2022-12-17T00:22:11;100108.72;;;-3.63;100.00
64292;BME280;50628;51.008;13.658;2022-12-17T00:27:32;100111.19;;;-3.58;100.00
64292;BME280;50628;51.008;13.658;2022-12-17T00:32:51;100112.00;;;-3.55;100.00
64292;BME280;50628;51.008;13.658;2022-12-17T00:38:14;100119.63;;;-3.56;100.00
64292;BME280;50628;51.008;13.658;2022-12-17T00:43:35;100120.50;;;-3.57;100.00
64292;BME280;50628;51.008;13.658;2022-12-17T00:48:55;100133.06;;;-3.48;100.00
64292;BME280;50628;51.008;13.658;2022-12-17T00:54:14;100140.75;;;-3.50;100.00
64292;BME280;50628;51.008;13.658;2022-12-17T00:59:35;100147.50;;;-3.49;100.00
64292;BME280;50628;51.008;13.658;2022-12-17T01:04:57;100156.09;;;-3.56;100.00
64292;BME280;50628;51.008;13.658;2022-12-17T01:10:16;100163.31;;;-3.82;100.00
64292;BME280;50628;51.008;13.658;2022-12-17T01:15:37;100164.47;;;-3.49;100.00
64292;BME280;50628;51.008;13.658;2022-12-17T01:20:56;100159.19;;;-3.37;100.00
64292;BME280;50628;51.008;13.658;2022-12-17T01:26:15;100170.53;;;-3.56;100.00
64292;BME280;50628;51.008;13.658;2022-12-17T01:31:36;100176.69;;;-3.71;100.00
64292;BME280;50628;51.008;13.658;2022-12-17T01:36:55;100184.00;;;-3.50;100.00
64292;BME280;50628;51.008;13.658;2022-12-17T01:42:15;100183.25;;;-3.56;100.00
64292;BME280;50628;51.008;13.658;2022-12-17T01:47:38;100179.81;;;-3.54;100.00
64292;BME280;50628;51.008;13.658;2022-12-17T01:52:59;100183.84;;;-3.40;100.00
64292;BME280;50628;51.008;13.658;2022-12-17T01:58:21;100188.84;;;-3.36;100.00
64292;BME280;50628;51.008;13.658;2022-12-17T02:03:41;100208.78;;;-3.62;100.00
64292;BME280;50628;51.008;13.658;2022-12-17T02:09:05;100198.63;;;-3.64;100.00
64292;BME280;50628;51.008;13.658;2022-12-17T02:14:30;100202.06;;;-3.66;100.00
64292;BME280;50628;51.008;13.658;2022-12-17T02:19:59;100208.84;;;-3.67;100.00
64292;BME280;50628;51.008;13.658;2022-12-17T02:25:38;100209.69;;;-3.65;100.00
64292;BME280;50628;51.008;13.658;2022-12-17T02:31:02;100205.31;;;-3.55;100.00
64292;BME280;50628;51.008;13.658;2022-12-17T02:36:22;100207.66;;;-3.44;100.00
64292;BME280;50628;51.008;13.658;2022-12-17T02:41:45;100206.16;;;-3.56;100.00
64292;BME280;50628;51.008;13.658;2022-12-17T02:47:08;100209.50;;;-3.53;100.00
64292;BME280;50628;51.008;13.658;2022-12-17T02:52:30;100212.94;;;-3.57;100.00
64292;BME280;50628;51.008;13.658;2022-12-17T02:57:50;100212.84;;;-3.51;100.00
64292;BME280;50628;51.008;13.658;2022-12-17T03:03:11;100215.31;;;-3.46;100.00
64292;BME280;50628;51.008;13.658;2022-12-17T03:08:30;100221.41;;;-3.55;100.00
64292;BME280;50628;51.008;13.658;2022-12-17T03:13:51;100227.09;;;-3.40;100.00
64292;BME280;50628;51.008;13.658;2022-12-17T03:19:11;100227.03;;;-3.36;100.00
64292;BME280;50628;51.008;13.658;2022-12-17T03:24:30;100232.81;;;-3.26;100.00
64292;BME280;50628;51.008;13.658;2022-12-17T03:29:49;100243.81;;;-3.24;100.00
64292;BME280;50628;51.008;13.658;2022-12-17T03:35:10;100248.81;;;-3.18;100.00
64292;BME280;50628;51.008;13.658;2022-12-17T03:40:32;100248.19;;;-3.32;100.00
64292;BME280;50628;51.008;13.658;2022-12-17T03:45:52;100250.00;;;-3.40;100.00
64292;BME280;50628;51.008;13.658;2022-12-17T03:51:13;100250.75;;;-3.34;100.00
64292;BME280;50628;51.008;13.658;2022-12-17T03:56:43;100250.63;;;-3.24;100.00
64292;BME280;50628;51.008;13.658;2022-12-17T04:02:03;100262.47;;;-3.22;100.00
64292;BME280;50628;51.008;13.658;2022-12-17T04:07:23;100258.13;;;-3.17;100.00
64292;BME280;50628;51.008;13.658;2022-12-17T04:12:43;100267.38;;;-3.11;100.00
64292;BME280;50628;51.008;13.658;2022-12-17T04:18:02;100280.22;;;-3.17;100.00
64292;BME280;50628;51.008;13.658;2022-12-17T04:23:23;100287.22;;;-3.33;100.00
64292;BME280;50628;51.008;13.658;2022-12-17T04:28:42;100288.94;;;-3.34;100.00
64292;BME280;50628;51.008;13.658;2022-12-17T04:34:01;100300.50;;;-3.13;100.00
64292;BME280;50628;51.008;13.658;2022-12-17T04:39:22;100302.13;;;-3.09;100.00
64292;BME280;50628;51.008;13.658;2022-12-17T04:44:44;100302.97;;;-3.07;100.00
64292;BME280;50628;51.008;13.658;2022-12-17T04:50:03;100304.47;;;-2.95;100.00
64292;BME280;50628;51.008;13.658;2022-12-17T04:55:24;100308.94;;;-3.09;100.00
64292;BME280;50628;51.008;13.658;2022-12-17T05:00:43;100310.69;;;-3.13;100.00
64292;BME280;50628;51.008;13.658;2022-12-17T05:06:03;100315.75;;;-3.13;100.00
64292;BME280;50628;51.008;13.658;2022-12-17T05:11:24;100320.03;;;-3.13;100.00
64292;BME280;50628;51.008;13.658;2022-12-17T05:16:43;100329.38;;;-3.15;100.00
64292;BME280;50628;51.008;13.658;2022-12-17T05:22:02;100332.63;;;-3.06;100.00
64292;BME280;50628;51.008;13.658;2022-12-17T05:27:23;100346.16;;;-3.00;100.00
64292;BME280;50628;51.008;13.658;2022-12-17T05:32:42;100357.38;;;-3.12;100.00
64292;BME280;50628;51.008;13.658;2022-12-17T05:38:03;100359.63;;;-2.94;100.00
64292;BME280;50628;51.008;13.658;2022-12-17T05:43:24;100363.72;;;-2.85;100.00
64292;BME280;50628;51.008;13.658;2022-12-17T05:48:44;100370.59;;;-2.89;100.00
64292;BME280;50628;51.008;13.658;2022-12-17T05:54:03;100374.09;;;-2.94;100.00
64292;BME280;50628;51.008;13.658;2022-12-17T05:59:24;100387.53;;;-2.86;100.00
64292;BME280;50628;51.008;13.658;2022-12-17T06:04:43;100378.16;;;-2.84;100.00
64292;BME280;50628;51.008;13.658;2022-12-17T06:10:03;100380.66;;;-2.81;100.00
64292;BME280;50628;51.008;13.658;2022-12-17T06:15:23;100394.53;;;-2.99;100.00
64292;BME280;50628;51.008;13.658;2022-12-17T06:20:43;100394.53;;;-2.99;100.00
64292;BME280;50628;51.008;13.658;2022-12-17T06:26:02;100396.16;;;-2.95;100.00
64292;BME280;50628;51.008;13.658;2022-12-17T06:31:23;100400.28;;;-2.88;100.00
64292;BME280;50628;51.008;13.658;2022-12-17T06:36:43;100412.06;;;-2.80;100.00
64292;BME280;50628;51.008;13.658;2022-12-17T06:42:03;100405.31;;;-2.81;100.00
64292;BME280;50628;51.008;13.658;2022-12-17T06:47:23;100418.09;;;-2.85;100.00
64292;BME280;50628;51.008;13.658;2022-12-17T06:52:43;100424.81;;;-2.80;100.00
64292;BME280;50628;51.008;13.658;2022-12-17T06:58:02;100432.59;;;-2.90;100.00
64292;BME280;50628;51.008;13.658;2022-12-17T07:03:23;100436.53;;;-2.70;100.00
64292;BME280;50628;51.008;13.658;2022-12-17T07:08:42;100447.50;;;-2.64;100.00
64292;BME280;50628;51.008;13.658;2022-12-17T07:14:01;100456.81;;;-2.63;100.00
64292;BME280;50628;51.008;13.658;2022-12-17T07:19:22;100464.38;;;-2.56;100.00
64292;BME280;50628;51.008;13.658;2022-12-17T07:24:50;100475.53;;;-2.65;100.00
64292;BME280;50628;51.008;13.658;2022-12-17T07:30:10;100476.63;;;-2.81;100.00
64292;BME280;50628;51.008;13.658;2022-12-17T07:35:31;100478.31;;;-2.80;100.00
64292;BME280;50628;51.008;13.658;2022-12-17T07:40:50;100484.13;;;-2.71;100.00
64292;BME280;50628;51.008;13.658;2022-12-17T07:46:10;100490.88;;;-2.67;100.00
64292;BME280;50628;51.008;13.658;2022-12-17T07:51:31;100486.50;;;-2.60;100.00
64292;BME280;50628;51.008;13.658;2022-12-17T07:56:50;100500.13;;;-2.59;100.00
64292;BME280;50628;51.008;13.658;2022-12-17T08:02:10;100509.38;;;-2.54;100.00
64292;BME280;50628;51.008;13.658;2022-12-17T08:07:30;100511.16;;;-2.61;100.00
64292;BME280;50628;51.008;13.658;2022-12-17T08:12:53;100524.56;;;-2.48;100.00
64292;BME280;50628;51.008;13.658;2022-12-17T08:18:13;100531.31;;;-2.44;100.00
64292;BME280;50628;51.008;13.658;2022-12-17T08:23:34;100543.00;;;-2.30;100.00
64292;BME280;50628;51.008;13.658;2022-12-17T08:28:53;100549.63;;;-2.19;100.00
64292;BME280;50628;51.008;13.658;2022-12-17T08:34:12;100550.47;;;-2.18;100.00
64292;BME280;50628;51.008;13.658;2022-12-17T08:39:33;100555.56;;;-2.16;100.00
64292;BME280;50628;51.008;13.658;2022-12-17T08:44:52;100563.22;;;-2.18;100.00
64292;BME280;50628;51.008;13.658;2022-12-17T08:50:12;100573.53;;;-2.24;100.00
64292;BME280;50628;51.008;13.658;2022-12-17T08:55:32;100576.47;;;-2.52;100.00
64292;BME280;50628;51.008;13.658;2022-12-17T09:00:52;100580.63;;;-2.46;100.00
64292;BME280;50628;51.008;13.658;2022-12-17T09:06:12;100588.91;;;-2.32;100.00
64292;BME280;50628;51.008;13.658;2022-12-17T09:11:32;100593.78;;;-2.78;100.00
64292;BME280;50628;51.008;13.658;2022-12-17T09:16:51;100601.97;;;-2.53;100.00
64292;BME280;50628;51.008;13.658;2022-12-17T09:22:11;100605.13;;;-2.37;100.00
64292;BME280;50628;51.008;13.658;2022-12-17T09:27:40;100597.28;;;-2.22;100.00
64292;BME280;50628;51.008;13.658;2022-12-17T09:33:00;100602.53;;;-2.33;100.00
64292;BME280;50628;51.008;13.658;2022-12-17T09:38:19;100602.19;;;-2.08;100.00
64292;BME280;50628;51.008;13.658;2022-12-17T09:43:44;100605.47;;;-2.02;100.00
64292;BME280;50628;51.008;13.658;2022-12-17T09:49:12;100618.94;;;-1.92;100.00
64292;BME280;50628;51.008;13.658;2022-12-17T09:54:35;100612.16;;;-1.93;100.00
64292;BME280;50628;51.008;13.658;2022-12-17T09:59:57;100614.78;;;-1.98;100.00
64292;BME280;50628;51.008;13.658;2022-12-17T10:05:20;100620.53;;;-1.83;100.00
64292;BME280;50628;51.008;13.658;2022-12-17T10:10:43;100627.41;;;-1.88;100.00
64292;BME280;50628;51.008;13.658;2022-12-17T10:16:19;100646.16;;;-1.91;100.00
64292;BME280;50628;51.008;13.658;2022-12-17T10:21:40;100636.69;;;-1.84;100.00
64292;BME280;50628;51.008;13.658;2022-12-17T10:27:07;100636.88;;;-1.97;100.00
64292;BME280;50628;51.008;13.658;2022-12-17T10:32:29;100640.88;;;-1.79;100.00
64292;BME280;50628;51.008;13.658;2022-12-17T10:37:48;100649.59;;;-1.95;100.00
64292;BME280;50628;51.008;13.658;2022-12-17T10:43:26;100653.81;;;-1.92;100.00
64292;BME280;50628;51.008;13.658;2022-12-17T10:48:47;100662.19;;;-1.81;100.00
64292;BME280;50628;51.008;13.658;2022-12-17T10:54:09;100662.31;;;-1.92;100.00
64292;BME280;50628;51.008;13.658;2022-12-17T10:59:36;100662.41;;;-1.97;100.00
64292;BME280;50628;51.008;13.658;2022-12-17T11:04:58;100666.53;;;-1.89;100.00
64292;BME280;50628;51.008;13.658;2022-12-17T11:10:19;100667.41;;;-1.92;100.00
64292;BME280;50628;51.008;13.658;2022-12-17T11:15:42;100671.63;;;-1.89;100.00
64292;BME280;50628;51.008;13.658;2022-12-17T11:21:07;100670.66;;;-1.81;100.00
64292;BME280;50628;51.008;13.658;2022-12-17T11:26:31;100673.06;;;-1.71;100.00
64292;BME280;50628;51.008;13.658;2022-12-17T11:32:07;100673.00;;;-1.67;100.00
64292;BME280;50628;51.008;13.658;2022-12-17T11:37:37;100677.31;;;-1.70;100.00
64292;BME280;50628;51.008;13.658;2022-12-17T11:43:08;100678.88;;;-1.62;100.00
64292;BME280;50628;51.008;13.658;2022-12-17T11:48:35;100674.59;;;-1.60;100.00
64292;BME280;50628;51.008;13.658;2022-12-17T11:54:03;100672.97;;;-1.64;100.00
64292;BME280;50628;51.008;13.658;2022-12-17T11:59:42;100679.75;;;-1.63;100.00
64292;BME280;50628;51.008;13.658;2022-12-17T12:05:14;100683.84;;;-1.51;100.00
64292;BME280;50628;51.008;13.658;2022-12-17T12:10:41;100689.72;;;-1.49;100.00
64292;BME280;50628;51.008;13.658;2022-12-17T12:16:06;100685.44;;;-1.47;100.00
64292;BME280;50628;51.008;13.658;2022-12-17T12:21:39;100691.25;;;-1.37;100.00
64292;BME280;50628;51.008;13.658;2022-12-17T12:27:08;100692.97;;;-1.38;100.00
64292;BME280;50628;51.008;13.658;2022-12-17T12:32:39;100695.66;;;-1.45;100.00
64292;BME280;50628;51.008;13.658;2022-12-17T12:38:02;100701.25;;;-1.78;100.00
64292;BME280;50628;51.008;13.658;2022-12-17T12:43:27;100705.06;;;-1.49;100.00
64292;BME280;50628;51.008;13.658;2022-12-17T12:48:53;100702.53;;;-1.50;100.00
64292;BME280;50628;51.008;13.658;2022-12-17T12:54:22;100709.84;;;-1.83;100.00
64292;BME280;50628;51.008;13.658;2022-12-17T12:59:47;100707.38;;;-1.34;100.00
64292;BME280;50628;51.008;13.658;2022-12-17T13:05:21;100716.31;;;-1.08;100.00
64292;BME280;50628;51.008;13.658;2022-12-17T13:10:35;100713.03;;;-1.16;100.00
64292;BME280;50628;51.008;13.658;2022-12-17T13:15:45;100718.06;;;-1.10;100.00
64292;BME280;50628;51.008;13.658;2022-12-17T13:20:59;100726.34;;;-0.97;100.00
64292;BME280;50628;51.008;13.658;2022-12-17T13:26:17;100728.28;;;-1.10;100.00
64292;BME280;50628;51.008;13.658;2022-12-17T13:31:25;100731.81;;;-1.19;100.00
64292;BME280;50628;51.008;13.658;2022-12-17T13:36:33;100738.38;;;-1.04;100.00
64292;BME280;50628;51.008;13.658;2022-12-17T13:41:37;100744.22;;;-0.96;100.00
64292;BME280;50628;51.008;13.658;2022-12-17T13:46:43;100740.03;;;-1.00;100.00
64292;BME280;50628;51.008;13.658;2022-12-17T13:51:45;100750.25;;;-1.01;100.00
64292;BME280;50628;51.008;13.658;2022-12-17T13:56:47;100756.97;;;-0.94;100.00
64292;BME280;50628;51.008;13.658;2022-12-17T14:01:52;100772.69;;;-1.19;100.00
64292;BME280;50628;51.008;13.658;2022-12-17T14:06:57;100777.53;;;-1.58;100.00
64292;BME280;50628;51.008;13.658;2022-12-17T14:12:03;100791.75;;;-1.41;100.00
64292;BME280;50628;51.008;13.658;2022-12-17T14:17:27;100798.63;;;-1.45;100.00
64292;BME280;50628;51.008;13.658;2022-12-17T14:22:32;100806.66;;;-1.74;100.00
64292;BME280;50628;51.008;13.658;2022-12-17T14:27:35;100812.22;;;-1.43;100.00
64292;BME280;50628;51.008;13.658;2022-12-17T14:32:41;100823.31;;;-1.45;100.00
64292;BME280;50628;51.008;13.658;2022-12-17T14:37:45;100826.13;;;-1.65;100.00
64292;BME280;50628;51.008;13.658;2022-12-17T14:42:47;100820.34;;;-1.78;100.00
64292;BME280;50628;51.008;13.658;2022-12-17T14:47:56;100825.84;;;-1.44;100.00
64292;BME280;50628;51.008;13.658;2022-12-17T14:53:00;100832.69;;;-1.46;100.00
64292;BME280;50628;51.008;13.658;2022-12-17T14:58:21;100841.25;;;-1.50;100.00
64292;BME280;50628;51.008;13.658;2022-12-17T15:03:26;100843.19;;;-1.69;100.00
64292;BME280;50628;51.008;13.658;2022-12-17T15:08:34;100858.44;;;-1.64;100.00
64292;BME280;50628;51.008;13.658;2022-12-17T15:13:36;100858.09;;;-1.37;100.00
64292;BME280;50628;51.008;13.658;2022-12-17T15:18:39;100862.47;;;-1.46;100.00
64292;BME280;50628;51.008;13.658;2022-12-17T15:23:42;100865.75;;;-1.37;100.00
64292;BME280;50628;51.008;13.658;2022-12-17T15:28:45;100869.53;;;-1.67;100.00
64292;BME280;50628;51.008;13.658;2022-12-17T15:33:48;100873.84;;;-1.70;100.00
64292;BME280;50628;51.008;13.658;2022-12-17T15:38:50;100876.50;;;-1.80;100.00
64292;BME280;50628;51.008;13.658;2022-12-17T15:43:52;100885.97;;;-1.88;100.00
64292;BME280;50628;51.008;13.658;2022-12-17T15:48:55;100876.72;;;-1.97;100.00
64292;BME280;50628;51.008;13.658;2022-12-17T15:53:57;100883.56;;;-2.03;100.00
64292;BME280;50628;51.008;13.658;2022-12-17T15:58:59;100880.31;;;-2.16;100.00
64292;BME280;50628;51.008;13.658;2022-12-17T16:04:02;100889.63;;;-2.15;100.00
64292;BME280;50628;51.008;13.658;2022-12-17T16:09:04;100898.16;;;-2.16;100.00
64292;BME280;50628;51.008;13.658;2022-12-17T16:14:06;100902.34;;;-2.10;100.00
64292;BME280;50628;51.008;13.658;2022-12-17T16:19:09;100917.00;;;-2.32;100.00
64292;BME280;50628;51.008;13.658;2022-12-17T16:24:11;100918.63;;;-2.25;100.00
64292;BME280;50628;51.008;13.658;2022-12-17T16:29:13;100914.41;;;-2.26;100.00
64292;BME280;50628;51.008;13.658;2022-12-17T16:34:16;100915.25;;;-2.24;100.00
64292;BME280;50628;51.008;13.658;2022-12-17T16:39:19;100915.22;;;-2.21;100.00
64292;BME280;50628;51.008;13.658;2022-12-17T16:44:21;100929.72;;;-2.28;100.00
64292;BME280;50628;51.008;13.658;2022-12-17T16:49:24;100935.72;;;-2.33;100.00
64292;BME280;50628;51.008;13.658;2022-12-17T16:54:29;100943.41;;;-2.40;100.00
64292;BME280;50628;51.008;13.658;2022-12-17T16:59:31;100939.19;;;-2.39;100.00
64292;BME280;50628;51.008;13.658;2022-12-17T17:04:35;100949.44;;;-2.50;100.00
64292;BME280;50628;51.008;13.658;2022-12-17T17:09:36;100960.56;;;-2.58;100.00
64292;BME280;50628;51.008;13.658;2022-12-17T17:14:38;100961.38;;;-2.53;100.00
64292;BME280;50628;51.008;13.658;2022-12-17T17:19:44;100964.97;;;-2.82;100.00
64292;BME280;50628;51.008;13.658;2022-12-17T17:24:46;100970.72;;;-2.54;100.00
64292;BME280;50628;51.008;13.658;2022-12-17T17:29:48;100970.06;;;-2.85;100.00
64292;BME280;50628;51.008;13.658;2022-12-17T17:34:51;100976.91;;;-2.98;100.00
64292;BME280;50628;51.008;13.658;2022-12-17T17:39:53;100975.25;;;-3.05;100.00
64292;BME280;50628;51.008;13.658;2022-12-17T17:44:55;100981.19;;;-3.01;100.00
64292;BME280;50628;51.008;13.658;2022-12-17T17:49:58;100985.63;;;-3.50;100.00
64292;BME280;50628;51.008;13.658;2022-12-17T17:55:00;100975.38;;;-3.36;100.00
64292;BME280;50628;51.008;13.658;2022-12-17T18:00:03;100978.78;;;-3.28;100.00
64292;BME280;50628;51.008;13.658;2022-12-17T18:05:08;100983.09;;;-3.50;100.00
64292;BME280;50628;51.008;13.658;2022-12-17T18:10:10;100988.19;;;-3.57;100.00
64292;BME280;50628;51.008;13.658;2022-12-17T18:15:11;101005.19;;;-3.73;100.00
64292;BME280;50628;51.008;13.658;2022-12-17T18:20:15;101012.00;;;-3.87;100.00
64292;BME280;50628;51.008;13.658;2022-12-17T18:25:17;101010.25;;;-3.73;100.00
64292;BME280;50628;51.008;13.658;2022-12-17T18:30:19;101012.84;;;-3.92;100.00
64292;BME280;50628;51.008;13.658;2022-12-17T18:35:22;101023.88;;;-4.05;100.00
64292;BME280;50628;51.008;13.658;2022-12-17T18:40:24;101027.25;;;-3.94;100.00
64292;BME280;50628;51.008;13.658;2022-12-17T18:45:26;101037.41;;;-4.21;100.00
64292;BME280;50628;51.008;13.658;2022-12-17T18:50:29;101038.22;;;-4.51;100.00
64292;BME280;50628;51.008;13.658;2022-12-17T18:55:31;101045.81;;;-4.64;100.00
64292;BME280;50628;51.008;13.658;2022-12-17T19:00:35;101050.06;;;-4.60;100.00
64292;BME280;50628;51.008;13.658;2022-12-17T19:05:39;101054.31;;;-4.59;100.00
64292;BME280;50628;51.008;13.658;2022-12-17T19:10:40;101062.75;;;-4.73;100.00
64292;BME280;50628;51.008;13.658;2022-12-17T19:15:42;101074.44;;;-5.14;100.00
64292;BME280;50628;51.008;13.658;2022-12-17T19:20:46;101072.59;;;-5.35;100.00
64292;BME280;50628;51.008;13.658;2022-12-17T19:25:47;101070.97;;;-5.25;100.00
64292;BME280;50628;51.008;13.658;2022-12-17T19:30:54;101070.78;;;-5.56;100.00
64292;BME280;50628;51.008;13.658;2022-12-17T19:36:02;101080.72;;;-5.83;100.00
64292;BME280;50628;51.008;13.658;2022-12-17T19:41:05;101086.59;;;-5.88;100.00
64292;BME280;50628;51.008;13.658;2022-12-17T19:46:09;101100.09;;;-5.93;100.00
64292;BME280;50628;51.008;13.658;2022-12-17T19:51:15;101094.16;;;-5.98;100.00
64292;BME280;50628;51.008;13.658;2022-12-17T19:56:19;101095.00;;;-5.98;100.00
64292;BME280;50628;51.008;13.658;2022-12-17T20:01:23;101102.59;;;-5.99;100.00
64292;BME280;50628;51.008;13.658;2022-12-17T20:06:28;101103.28;;;-6.17;100.00
64292;BME280;50628;51.008;13.658;2022-12-17T20:11:31;101106.53;;;-6.29;100.00
64292;BME280;50628;51.008;13.658;2022-12-17T20:16:35;101111.50;;;-6.40;100.00
64292;BME280;50628;51.008;13.658;2022-12-17T20:21:40;101112.34;;;-6.39;100.00
64292;BME280;50628;51.008;13.658;2022-12-17T20:26:43;101120.75;;;-6.42;100.00
64292;BME280;50628;51.008;13.658;2022-12-17T20:31:45;101119.50;;;-6.76;100.00
64292;BME280;50628;51.008;13.658;2022-12-17T20:36:48;101132.09;;;-6.81;100.00
64292;BME280;50628;51.008;13.658;2022-12-17T20:41:50;101135.66;;;-6.66;100.00
64292;BME280;50628;51.008;13.658;2022-12-17T20:46:52;101136.63;;;-6.57;100.00
64292;BME280;50628;51.008;13.658;2022-12-17T20:51:55;101140.06;;;-6.51;100.00
64292;BME280;50628;51.008;13.658;2022-12-17T20:56:57;101151.75;;;-6.63;100.00
64292;BME280;50628;51.008;13.658;2022-12-17T21:01:59;101153.56;;;-6.53;100.00
64292;BME280;50628;51.008;13.658;2022-12-17T21:07:02;101150.69;;;-6.80;100.00
64292;BME280;50628;51.008;13.658;2022-12-17T21:12:04;101149.78;;;-6.85;100.00
64292;BME280;50628;51.008;13.658;2022-12-17T21:17:06;101165.56;;;-7.03;100.00
64292;BME280;50628;51.008;13.658;2022-12-17T21:22:09;101171.31;;;-7.13;100.00
64292;BME280;50628;51.008;13.658;2022-12-17T21:27:12;101166.22;;;-7.16;100.00
64292;BME280;50628;51.008;13.658;2022-12-17T21:32:14;101161.94;;;-7.74;100.00
64292;BME280;50628;51.008;13.658;2022-12-17T21:37:17;101180.28;;;-7.84;100.00
64292;BME280;50628;51.008;13.658;2022-12-17T21:42:19;101181.75;;;-7.98;100.00
64292;BME280;50628;51.008;13.658;2022-12-17T21:47:34;101189.69;;;-7.78;100.00
64292;BME280;50628;51.008;13.658;2022-12-17T21:52:38;101196.25;;;-7.87;100.00
64292;BME280;50628;51.008;13.658;2022-12-17T21:57:39;101194.56;;;-7.88;100.00
64292;BME280;50628;51.008;13.658;2022-12-17T22:02:41;101187.88;;;-7.84;100.00
64292;BME280;50628;51.008;13.658;2022-12-17T22:07:45;101186.66;;;-8.06;100.00
64292;BME280;50628;51.008;13.658;2022-12-17T22:12:47;101189.81;;;-8.60;100.00
64292;BME280;50628;51.008;13.658;2022-12-17T22:18:06;101197.50;;;-8.54;100.00
64292;BME280;50628;51.008;13.658;2022-12-17T22:23:09;101195.19;;;-8.46;100.00
64292;BME280;50628;51.008;13.658;2022-12-17T22:28:11;101216.50;;;-8.31;100.00
64292;BME280;50628;51.008;13.658;2022-12-17T22:33:13;101220.53;;;-8.39;100.00
64292;BME280;50628;51.008;13.658;2022-12-17T22:38:16;101222.44;;;-8.29;100.00
64292;BME280;50628;51.008;13.658;2022-12-17T22:43:18;101228.63;;;-8.55;100.00
64292;BME280;50628;51.008;13.658;2022-12-17T22:48:32;101229.91;;;-8.33;100.00
64292;BME280;50628;51.008;13.658;2022-12-17T22:53:36;101244.91;;;-8.82;100.00
64292;BME280;50628;51.008;13.658;2022-12-17T22:58:38;101240.44;;;-8.54;100.00
64292;BME280;50628;51.008;13.658;2022-12-17T23:03:41;101236.78;;;-8.67;100.00
64292;BME280;50628;51.008;13.658;2022-12-17T23:14:00;101250.63;;;-8.87;100.00
64292;BME280;50628;51.008;13.658;2022-12-17T23:19:02;101237.91;;;-8.94;100.00
64292;BME280;50628;51.008;13.658;2022-12-17T23:24:05;101248.66;;;-9.01;100.00
64292;BME280;50628;51.008;13.658;2022-12-17T23:29:13;101259.72;;;-9.30;100.00
64292;BME280;50628;51.008;13.658;2022-12-17T23:34:15;101274.41;;;-9.14;100.00
64292;BME280;50628;51.008;13.658;2022-12-17T23:39:17;101260.75;;;-9.22;100.00
64292;BME280;50628;51.008;13.658;2022-12-17T23:44:20;101262.91;;;-9.38;100.00
64292;BME280;50628;51.008;13.658;2022-12-17T23:49:23;101256.56;;;-9.55;100.00
64292;BME280;50628;51.008;13.658;2022-12-17T23:54:25;101258.81;;;-9.32;100.00
64292;BME280;50628;51.008;13.658;2022-12-17T23:59:28;101263.00;;;-9.33;100.00
